CDT,Max TemperatureF,Mean TemperatureF,Min TemperatureF,Max Dew PointF,MeanDew PointF,Min DewpointF,Max Humidity, Mean Humidity, Min Humidity, Max Sea Level PressureIn, Mean Sea Level PressureIn, Min Sea Level PressureIn, Max VisibilityMiles, Mean VisibilityMiles, Min VisibilityMiles, Max Wind SpeedMPH, Mean Wind SpeedMPH, Max Gust SpeedMPH,PrecipitationIn, CloudCover, Events, WindDirDegrees
2011-10-1,64,45,25,34,31,25,92,62,32,30.31,30.22,30.10,10,10,10,16,6,23,0.00,0,,176
2011-10-2,77,56,34,48,41,34,92,64,35,30.15,30.11,30.07,10,10,10,12,4,15,0.00,0,,118
2011-10-3,82,63,43,46,44,41,89,58,26,30.16,30.12,30.08,10,10,10,15,5,23,0.00,0,,156
2011-10-4,82,65,48,52,46,42,80,57,33,30.12,30.08,30.03,10,10,10,9,4,14,0.00,0,,139
2011-10-5,79,65,50,52,47,43,77,57,37,30.06,30.03,29.99,10,10,10,17,8,22,0.00,0,,130
2011-10-6,81,65,48,49,45,41,93,60,26,30.07,30.01,29.96,10,10,10,18,9,26,0.00,0,,145
2011-10-7,79,72,64,63,54,47,93,68,43,29.94,29.76,29.64,10,10,5,20,11,39,0.06,3,Rain-Thunderstorm,171
2011-10-8,69,58,47,58,48,44,83,66,48,30.15,29.93,29.70,10,10,10,21,10,26,T,4,Rain,242
2011-10-9,59,50,41,47,41,38,100,74,47,30.34,30.25,30.16,10,10,10,12,5,15,0.00,3,,88
2011-10-10,75,60,45,55,49,44,93,67,41,30.15,29.96,29.83,10,10,5,25,9,37,0.09,3,Rain,158
2011-10-11,73,62,50,53,50,43,100,68,35,29.82,29.78,29.74,10,8,2,14,6,22,T,2,Rain,169
2011-10-12,60,54,48,57,53,46,100,86,72,29.76,29.69,29.62,10,4,0,8,4,12,0.16,6,Fog-Rain,138
2011-10-13,55,50,45,54,48,42,100,90,80,29.62,29.58,29.55,10,7,2,17,9,25,0.42,8,Rain,289
2011-10-14,48,44,39,45,38,30,89,74,58,29.70,29.62,29.56,10,9,2,26,13,35,T,8,Rain,300
2011-10-15,46,40,33,32,31,29,89,74,58,29.74,29.72,29.68,10,10,10,23,10,33,0.00,5,,274
2011-10-16,46,42,37,34,30,26,85,65,45,29.68,29.64,29.61,10,10,10,31,17,45,T,7,,280
2011-10-17,45,41,36,37,34,27,92,71,49,29.89,29.75,29.60,10,9,5,26,15,36,0.05,8,Rain,300
2011-10-18,42,38,34,34,31,30,89,77,65,30.15,30.03,29.87,10,10,9,16,10,21,0.76,8,Rain-Snow,327
2011-10-19,42,38,33,34,31,29,89,78,67,30.26,30.20,30.13,10,8,1,12,5,14,0.04,7,Snow,31
2011-10-20,48,34,20,34,30,21,96,75,53,30.17,30.07,29.95,10,10,10,12,4,15,0.00,4,,28
2011-10-21,57,38,19,35,29,17,92,68,43,30.02,29.97,29.90,10,10,10,15,5,21,0.00,1,,249
2011-10-22,55,39,22,40,29,19,100,69,38,30.14,30.04,29.78,10,6,0,12,4,18,0.10,2,Fog-Rain,228
2011-10-23,58,46,34,44,36,27,100,66,32,29.87,29.76,29.71,10,7,0,21,7,30,0.00,2,Fog,257
2011-10-24,49,38,26,31,29,24,92,69,46,30.12,29.99,29.84,10,10,10,12,4,20,0.00,3,,308
2011-10-25,48,34,20,35,28,18,100,77,54,30.12,30.10,30.07,10,10,6,6,1,9,0.00,1,,107
2011-10-26,48,39,29,37,34,27,96,78,60,30.13,30.08,30.01,10,9,2,16,3,20,0.07,7,Rain,354
2011-10-27,44,34,24,37,31,23,100,79,57,30.07,30.02,29.97,10,9,6,10,3,14,T,5,,233
2011-10-28,42,34,25,37,32,24,92,86,79,30.02,29.97,29.89,10,9,2,17,6,23,0.09,7,Rain,260
2011-10-29,40,29,17,36,27,15,100,92,84,30.05,29.99,29.94,10,6,0,9,4,12,0.00,2,Fog,107
2011-10-30,49,40,30,35,31,28,92,73,54,29.96,29.91,29.87,10,10,10,14,6,16,0.00,7,,118
2011-10-31,43,35,26,35,32,25,92,81,70,29.97,29.91,29.78,10,10,8,13,5,20,T,7,,180